createdAt,value
2022-10-11T00:01:20.816Z,100934.50
2022-10-11T00:03:47.375Z,100936.44
2022-10-11T00:06:14.274Z,100939.19
2022-10-11T00:08:41.037Z,100939.13
2022-10-11T00:11:08.069Z,100950.78
2022-10-11T00:13:35.724Z,100942.81
2022-10-11T00:16:08.972Z,100939.47
2022-10-11T00:18:36.406Z,100937.72
2022-10-11T00:21:09.796Z,100939.41
2022-10-11T00:23:36.936Z,100939.94
2022-10-11T00:26:05.690Z,100942.28
2022-10-11T00:28:32.450Z,100946.50
2022-10-11T00:31:18.953Z,100940.25
2022-10-11T00:34:05.656Z,100939.47
2022-10-11T00:36:52.338Z,100948.22
2022-10-11T00:39:38.961Z,100945.53
2022-10-11T00:42:25.654Z,100953.41
2022-10-11T00:45:27.336Z,100950.44
2022-10-11T00:48:02.413Z,100953.72
2022-10-11T00:50:33.015Z,100952.88
2022-10-11T00:53:03.241Z,100954.63
2022-10-11T00:55:37.270Z,100955.63
2022-10-11T00:58:04.347Z,100959.53
2022-10-11T01:00:30.872Z,100954.28
2022-10-11T01:02:57.604Z,100955.13
2022-10-11T01:05:31.417Z,100955.91
2022-10-11T01:08:00.040Z,100961.31
2022-10-11T01:10:28.046Z,100961.44
2022-10-11T01:13:26.689Z,100963.16
2022-10-11T01:16:15.148Z,100958.88
2022-10-11T01:18:47.684Z,100961.19
2022-10-11T01:21:26.983Z,100962.50
2022-10-11T01:24:08.680Z,100959.63
2022-10-11T01:26:45.110Z,100959.59
2022-10-11T01:29:32.082Z,100954.94
2022-10-11T01:32:18.532Z,100959.47
2022-10-11T01:35:02.686Z,100949.69
2022-10-11T01:37:38.653Z,100950.69
2022-10-11T01:40:13.325Z,100953.72
2022-10-11T01:42:43.084Z,100953.53
2022-10-11T01:45:14.664Z,100961.53
2022-10-11T01:47:42.413Z,100955.13
2022-10-11T01:50:37.669Z,100963.00
2022-10-11T01:53:40.291Z,100964.09
2022-10-11T01:56:36.185Z,100970.13
2022-10-11T01:59:40.906Z,100964.38
2022-10-11T02:02:25.822Z,100971.03
2022-10-11T02:05:23.366Z,100967.81
2022-10-11T02:07:57.941Z,100966.84
2022-10-11T02:10:40.115Z,100971.09
2022-10-11T02:13:13.776Z,100986.00
2022-10-11T02:15:41.295Z,100988.88
2022-10-11T02:18:14.713Z,100992.22
2022-10-11T02:20:44.930Z,100984.41
2022-10-11T02:23:20.695Z,100991.38
2022-10-11T02:25:48.461Z,100994.13
2022-10-11T02:28:20.602Z,100988.31
2022-10-11T02:30:50.164Z,100984.31
2022-10-11T02:33:23.831Z,100994.41
2022-10-11T02:35:58.939Z,100987.06
2022-10-11T02:38:31.798Z,100990.34
2022-10-11T02:41:36.801Z,100991.13
2022-10-11T02:44:08.872Z,100999.06
2022-10-11T02:46:37.244Z,100994.13
2022-10-11T02:49:04.347Z,100997.41
2022-10-11T02:51:31.684Z,100999.19
2022-10-11T02:53:58.818Z,100993.09
2022-10-11T02:56:25.534Z,101003.94
2022-10-11T02:58:52.326Z,101000.63
2022-10-11T03:01:19.893Z,101003.38
2022-10-11T03:03:46.399Z,101011.41
2022-10-11T03:06:12.799Z,101014.78
2022-10-11T03:08:39.223Z,101022.63
2022-10-11T03:11:05.868Z,101016.00
2022-10-11T03:13:32.260Z,101021.41
2022-10-11T03:16:03.202Z,101025.94
2022-10-11T03:18:34.028Z,101012.84
2022-10-11T03:21:00.448Z,101015.03
2022-10-11T03:23:26.988Z,101015.19
2022-10-11T03:25:53.692Z,101016.84
2022-10-11T03:28:21.267Z,101026.44
2022-10-11T03:30:49.899Z,101024.25
2022-10-11T03:33:17.085Z,101028.44
2022-10-11T03:35:45.993Z,101028.47
2022-10-11T03:38:14.537Z,101037.06
2022-10-11T03:40:43.127Z,101032.47
2022-10-11T03:43:10.084Z,101034.34
2022-10-11T03:45:36.835Z,101042.88
2022-10-11T03:48:03.619Z,101044.53
2022-10-11T03:50:31.307Z,101039.53
2022-10-11T03:52:57.892Z,101044.03
2022-10-11T03:55:24.556Z,101051.03
2022-10-11T03:57:51.312Z,101046.47
2022-10-11T04:00:17.929Z,101043.75
2022-10-11T04:02:44.467Z,101042.31
2022-10-11T04:05:12.776Z,101048.69
2022-10-11T04:07:41.296Z,101050.75
2022-10-11T04:10:08.087Z,101049.97
2022-10-11T04:12:37.029Z,101051.56
2022-10-11T04:15:04.571Z,101062.34
2022-10-11T04:17:30.978Z,101062.59
2022-10-11T04:19:57.453Z,101061.84
2022-10-11T04:22:24.999Z,101058.38
2022-10-11T04:24:52.238Z,101067.19
2022-10-11T04:27:18.606Z,101065.53
2022-10-11T04:29:44.994Z,101064.56
2022-10-11T04:32:11.684Z,101077.44
2022-10-11T04:34:38.149Z,101081.31
2022-10-11T04:37:04.618Z,101081.44
2022-10-11T04:39:31.029Z,101085.16
2022-10-11T04:41:57.769Z,101091.13
2022-10-11T04:44:24.267Z,101098.06
2022-10-11T04:46:50.918Z,101097.97
2022-10-11T04:49:17.316Z,101107.66
2022-10-11T04:51:43.791Z,101106.69
2022-10-11T04:54:10.198Z,101101.22
2022-10-11T04:56:36.855Z,101106.28
2022-10-11T04:59:03.456Z,101111.38
2022-10-11T05:01:29.896Z,101116.75
2022-10-11T05:03:56.633Z,101121.41
2022-10-11T05:06:23.020Z,101126.78
2022-10-11T05:08:50.204Z,101129.56
2022-10-11T05:11:17.772Z,101128.53
2022-10-11T05:13:45.871Z,101130.44
2022-10-11T05:16:13.787Z,101134.13
2022-10-11T05:18:40.810Z,101136.47
2022-10-11T05:21:19.845Z,101143.97
2022-10-11T05:23:47.957Z,101141.38
2022-10-11T05:26:15.056Z,101142.09
2022-10-11T05:28:41.823Z,101149.13
2022-10-11T05:31:08.423Z,101149.00
2022-10-11T05:33:35.188Z,101149.38
2022-10-11T05:36:02.273Z,101158.53
2022-10-11T05:38:29.168Z,101160.09
2022-10-11T05:40:59.661Z,101167.03
2022-10-11T05:43:26.396Z,101168.16
2022-10-11T05:45:53.031Z,101179.59
2022-10-11T05:48:19.523Z,101177.53
2022-10-11T05:50:46.481Z,101176.91
2022-10-11T05:53:13.344Z,101182.84
2022-10-11T05:55:42.159Z,101179.25
2022-10-11T05:58:12.921Z,101182.75
2022-10-11T06:00:39.803Z,101178.63
2022-10-11T06:03:08.225Z,101184.84
2022-10-11T06:05:35.811Z,101181.16
2022-10-11T06:08:03.560Z,101196.06
2022-10-11T06:10:29.959Z,101205.31
2022-10-11T06:12:56.884Z,101209.53
2022-10-11T06:15:23.644Z,101208.63
2022-10-11T06:17:50.387Z,101209.44
2022-10-11T06:20:16.837Z,101217.56
2022-10-11T06:22:43.713Z,101213.75
2022-10-11T06:25:10.542Z,101207.78
2022-10-11T06:27:37.422Z,101214.69
2022-10-11T06:30:05.398Z,101216.25
2022-10-11T06:32:32.216Z,101223.84
2022-10-11T06:34:59.140Z,101226.47
2022-10-11T06:37:25.603Z,101215.47
2022-10-11T06:39:52.067Z,101226.78
2022-10-11T06:42:18.714Z,101227.75
2022-10-11T06:44:45.190Z,101232.00
2022-10-11T06:47:11.565Z,101231.19
2022-10-11T06:49:38.432Z,101234.38
2022-10-11T06:52:05.057Z,101232.19
2022-10-11T06:54:31.763Z,101237.34
2022-10-11T06:56:58.499Z,101238.75
2022-10-11T06:59:24.922Z,101246.50
2022-10-11T07:01:51.554Z,101242.25
2022-10-11T07:04:18.093Z,101245.94
2022-10-11T07:06:44.764Z,101245.50
2022-10-11T07:09:11.874Z,101254.78
2022-10-11T07:11:38.736Z,101260.69
2022-10-11T07:14:08.134Z,101256.09
2022-10-11T07:16:38.066Z,101263.88
2022-10-11T07:19:06.708Z,101264.03
2022-10-11T07:21:35.010Z,101262.59
2022-10-11T07:24:02.692Z,101271.75
2022-10-11T07:26:36.653Z,101275.19
2022-10-11T07:29:05.129Z,101269.56
2022-10-11T07:31:31.835Z,101269.69
2022-10-11T07:33:58.449Z,101273.53
2022-10-11T07:36:25.731Z,101274.63
2022-10-11T07:38:52.384Z,101271.69
2022-10-11T07:41:19.614Z,101287.50
2022-10-11T07:43:49.715Z,101272.81
2022-10-11T07:46:18.264Z,101281.53
2022-10-11T07:48:44.969Z,101277.53
2022-10-11T07:51:14.393Z,101286.34
2022-10-11T07:53:44.803Z,101286.91
2022-10-11T07:56:13.545Z,101282.75
2022-10-11T07:58:41.175Z,101292.06
2022-10-11T08:01:08.896Z,101292.47
2022-10-11T08:03:35.824Z,101294.41
2022-10-11T08:06:11.123Z,101294.06
2022-10-11T08:08:37.867Z,101298.72
2022-10-11T08:11:04.894Z,101294.44
2022-10-11T08:13:32.021Z,101293.28
2022-10-11T08:15:58.440Z,101297.91
2022-10-11T08:18:25.505Z,101296.53
2022-10-11T08:20:52.548Z,101300.00
2022-10-11T08:23:20.158Z,101298.78
2022-10-11T08:25:48.071Z,101302.13
2022-10-11T08:28:17.300Z,101306.19
2022-10-11T08:30:50.919Z,101317.94
2022-10-11T08:33:18.911Z,101316.72
2022-10-11T08:35:46.088Z,101309.91
2022-10-11T08:38:12.610Z,101307.09
2022-10-11T08:40:46.458Z,101308.63
2022-10-11T08:43:28.066Z,101300.84
2022-10-11T08:45:57.774Z,101302.97
2022-10-11T08:48:38.399Z,101303.81
2022-10-11T08:51:08.972Z,101309.53
2022-10-11T08:53:51.467Z,101316.78
2022-10-11T08:56:18.808Z,101305.41
2022-10-11T08:58:52.582Z,101313.31
2022-10-11T09:01:24.736Z,101317.28
2022-10-11T09:03:52.061Z,101317.59
2022-10-11T09:06:35.234Z,101313.59
2022-10-11T09:09:16.059Z,101320.69
2022-10-11T09:12:10.411Z,101311.78
2022-10-11T09:14:40.314Z,101319.66
2022-10-11T09:17:34.255Z,101309.88
2022-10-11T09:20:15.950Z,101312.31
2022-10-11T09:23:07.356Z,101305.16
2022-10-11T09:25:44.235Z,101308.81
2022-10-11T09:28:10.803Z,101314.88
2022-10-11T09:30:46.715Z,101313.06
2022-10-11T09:33:20.781Z,101310.97
2022-10-11T09:35:50.363Z,101311.81
2022-10-11T09:38:40.996Z,101313.88
2022-10-11T09:41:36.409Z,101312.84
2022-10-11T09:44:06.498Z,101305.19
2022-10-11T09:46:41.367Z,101301.72
2022-10-11T09:49:13.232Z,101304.25
2022-10-11T09:51:43.720Z,101301.03
2022-10-11T09:54:10.827Z,101300.91
2022-10-11T09:56:45.695Z,101293.16
2022-10-11T09:59:28.993Z,101298.34
2022-10-11T10:02:21.016Z,101303.59
2022-10-11T10:04:53.915Z,101302.19
2022-10-11T10:07:20.899Z,101290.38
2022-10-11T10:09:47.511Z,101292.66
2022-10-11T10:12:20.478Z,101296.50
2022-10-11T10:15:07.054Z,101295.06
2022-10-11T10:17:35.753Z,101293.63
2022-10-11T10:20:05.609Z,101290.69
2022-10-11T10:22:35.295Z,101292.75
2022-10-11T10:25:07.357Z,101287.03
2022-10-11T10:27:34.177Z,101291.53
2022-10-11T10:30:09.918Z,101282.75
2022-10-11T10:32:52.525Z,101279.63
2022-10-11T10:35:25.547Z,101285.66
2022-10-11T10:38:10.211Z,101283.28
2022-10-11T10:40:41.788Z,101294.13
2022-10-11T10:43:18.070Z,101282.66
2022-10-11T10:46:05.586Z,101285.38
2022-10-11T10:49:34.907Z,101288.38
2022-10-11T10:52:15.227Z,101278.75
2022-10-11T10:55:03.403Z,101272.19
2022-10-11T10:57:44.250Z,101276.00
2022-10-11T11:00:17.324Z,101272.94
2022-10-11T11:02:48.972Z,101278.09
2022-10-11T11:05:53.638Z,101268.09
2022-10-11T11:08:39.018Z,101271.16
2022-10-11T11:11:17.748Z,101260.53
2022-10-11T11:14:02.591Z,101263.00
2022-10-11T11:16:31.934Z,101266.84
2022-10-11T11:19:04.487Z,101258.47
2022-10-11T11:21:54.243Z,101260.09
2022-10-11T11:24:52.004Z,101250.72
2022-10-11T11:27:40.915Z,101250.16
2022-10-11T11:30:20.472Z,101250.59
2022-10-11T11:33:21.529Z,101242.63
2022-10-11T11:35:55.729Z,101246.78
2022-10-11T11:38:43.995Z,101248.22
2022-10-11T11:41:18.029Z,101240.69
2022-10-11T11:44:01.572Z,101245.44
2022-10-11T11:46:40.144Z,101240.09
2022-10-11T11:49:17.082Z,101240.94
2022-10-11T11:51:46.210Z,101241.50
2022-10-11T11:54:28.153Z,101236.75
2022-10-11T11:57:12.951Z,101232.19
2022-10-11T11:59:50.216Z,101233.56
2022-10-11T12:02:44.729Z,101229.66
2022-10-11T12:05:15.596Z,101233.66
2022-10-11T12:07:59.421Z,101221.16
2022-10-11T12:10:54.386Z,101230.22
2022-10-11T12:13:36.386Z,101218.91
2022-10-11T12:16:12.876Z,101216.66
2022-10-11T12:18:55.799Z,101207.63
2022-10-11T12:21:38.796Z,101212.03
2022-10-11T12:24:20.659Z,101210.34
2022-10-11T12:26:49.580Z,101210.66
2022-10-11T12:29:20.137Z,101213.25
2022-10-11T12:31:51.298Z,101202.19
2022-10-11T12:34:34.373Z,101200.44
2022-10-11T12:37:21.041Z,101195.66
2022-10-11T12:39:51.007Z,101194.13
2022-10-11T12:42:29.107Z,101194.75
2022-10-11T12:45:10.833Z,101194.53
2022-10-11T12:48:02.282Z,101189.59
2022-10-11T12:50:47.064Z,101183.50
2022-10-11T12:53:32.393Z,101172.00
2022-10-11T12:56:05.965Z,101168.78
2022-10-11T12:58:38.672Z,101168.22
2022-10-11T13:01:17.362Z,101169.00
2022-10-11T13:04:09.727Z,101167.88
2022-10-11T13:06:53.381Z,101167.78
2022-10-11T13:09:31.562Z,101178.28
2022-10-11T13:12:09.137Z,101174.94
2022-10-11T13:14:42.111Z,101175.84
2022-10-11T13:17:25.825Z,101167.63
2022-10-11T13:20:01.946Z,101170.06
2022-10-11T13:22:29.195Z,101162.47
2022-10-11T13:24:59.604Z,101176.59
2022-10-11T13:27:27.320Z,101178.06
2022-10-11T13:29:59.201Z,101167.47
2022-10-11T13:32:29.506Z,101160.56
2022-10-11T13:34:57.640Z,101169.75
2022-10-11T13:37:26.913Z,101161.09
2022-10-11T13:39:55.298Z,101164.47
2022-10-11T13:42:28.183Z,101158.66
2022-10-11T13:44:55.099Z,101165.44
2022-10-11T13:47:26.926Z,101161.56
2022-10-11T13:50:09.136Z,101160.03
2022-10-11T13:52:35.705Z,101160.44
2022-10-11T13:55:05.850Z,101158.91
2022-10-11T13:57:49.920Z,101151.41
2022-10-11T14:00:17.358Z,101152.91
2022-10-11T14:02:51.683Z,101149.81
2022-10-11T14:05:34.465Z,101144.50
2022-10-11T14:08:05.399Z,101149.03
2022-10-11T14:10:32.873Z,101142.69
2022-10-11T14:13:06.108Z,101143.16
2022-10-11T14:15:36.455Z,101146.97
2022-10-11T14:18:34.457Z,101142.13
2022-10-11T14:21:19.078Z,101151.41
2022-10-11T14:24:10.312Z,101158.75
2022-10-11T14:26:39.428Z,101153.47
2022-10-11T14:29:17.378Z,101154.63
2022-10-11T14:31:44.141Z,101163.56
2022-10-11T14:34:19.769Z,101158.97
2022-10-11T14:36:46.597Z,101153.38
2022-10-11T14:39:20.339Z,101151.84
2022-10-11T14:41:47.150Z,101152.06
2022-10-11T14:44:14.093Z,101154.09
2022-10-11T14:46:41.522Z,101158.53
2022-10-11T14:49:14.576Z,101157.81
2022-10-11T14:51:42.950Z,101152.72
2022-10-11T14:54:09.602Z,101163.88
2022-10-11T14:56:36.258Z,101151.63
2022-10-11T14:59:02.767Z,101164.91
2022-10-11T15:01:29.217Z,101157.59
2022-10-11T15:03:55.865Z,101150.78
2022-10-11T15:06:26.903Z,101158.50
2022-10-11T15:08:53.309Z,101156.81
2022-10-11T15:11:21.436Z,101154.81
2022-10-11T15:13:48.525Z,101155.53
2022-10-11T15:16:19.080Z,101154.34
2022-10-11T15:18:52.838Z,101149.22
2022-10-11T15:21:23.027Z,101143.47
2022-10-11T15:23:51.066Z,101144.81
2022-10-11T15:26:24.526Z,101146.41
2022-10-11T15:28:53.200Z,101150.09
2022-10-11T15:31:19.909Z,101153.66
2022-10-11T15:33:47.128Z,101147.22
2022-10-11T15:36:19.625Z,101144.16
2022-10-11T15:38:47.287Z,101153.59
2022-10-11T15:41:15.602Z,101153.50
2022-10-11T15:43:43.423Z,101147.38
2022-10-11T15:46:15.900Z,101142.22
2022-10-11T15:48:42.298Z,101137.88
2022-10-11T15:51:08.863Z,101149.28
2022-10-11T15:53:35.675Z,101143.97
2022-10-11T15:56:06.487Z,101145.09
2022-10-11T15:58:35.797Z,101149.25
2022-10-11T16:01:09.005Z,101144.88
2022-10-11T16:03:36.117Z,101152.66
2022-10-11T16:06:05.494Z,101149.22
2022-10-11T16:08:33.385Z,101148.28
2022-10-11T16:10:59.958Z,101151.78
2022-10-11T16:13:26.409Z,101158.09
2022-10-11T16:15:53.419Z,101160.66
2022-10-11T16:18:20.888Z,101163.81
2022-10-11T16:20:49.944Z,101159.31
2022-10-11T16:23:16.733Z,101162.72
2022-10-11T16:25:43.356Z,101159.78
2022-10-11T16:28:11.181Z,101158.94
2022-10-11T16:30:43.871Z,101158.94
2022-10-11T16:33:10.445Z,101158.69
2022-10-11T16:35:41.467Z,101162.88
2022-10-11T16:38:08.442Z,101163.91
2022-10-11T16:40:36.463Z,101157.66
2022-10-11T16:43:07.504Z,101159.19
2022-10-11T16:45:35.375Z,101162.34
2022-10-11T16:48:02.180Z,101164.00
2022-10-11T16:50:29.200Z,101169.84
2022-10-11T16:52:56.107Z,101165.59
2022-10-11T16:55:23.216Z,101164.38
2022-10-11T16:57:49.771Z,101161.59
2022-10-11T17:00:17.038Z,101168.50
2022-10-11T17:02:43.817Z,101167.78
2022-10-11T17:05:10.306Z,101166.84
2022-10-11T17:07:37.364Z,101170.56
2022-10-11T17:10:04.971Z,101162.88
2022-10-11T17:12:32.771Z,101156.75
2022-10-11T17:14:59.183Z,101160.78
2022-10-11T17:17:26.864Z,101165.53
2022-10-11T17:19:53.323Z,101161.13
2022-10-11T17:22:20.433Z,101168.50
2022-10-11T17:24:46.987Z,101168.81
2022-10-11T17:27:14.141Z,101165.03
2022-10-11T17:29:40.825Z,101170.47
2022-10-11T17:32:07.687Z,101171.81
2022-10-11T17:34:34.370Z,101174.72
2022-10-11T17:37:00.976Z,101173.56
2022-10-11T17:39:27.594Z,101172.97
2022-10-11T17:41:54.638Z,101170.03
2022-10-11T17:44:22.043Z,101170.78
2022-10-11T17:46:48.868Z,101172.41
2022-10-11T17:49:15.875Z,101170.53
2022-10-11T17:51:43.344Z,101165.28
2022-10-11T17:54:12.858Z,101175.22
2022-10-11T17:56:41.293Z,101171.22
2022-10-11T17:59:14.322Z,101176.53
2022-10-11T18:01:41.709Z,101167.25
2022-10-11T18:04:13.196Z,101165.75
2022-10-11T18:06:40.086Z,101176.88
2022-10-11T18:09:07.130Z,101176.81
2022-10-11T18:11:33.757Z,101176.44
2022-10-11T18:14:00.717Z,101173.53
2022-10-11T18:16:29.119Z,101176.63
2022-10-11T18:18:57.357Z,101178.06
2022-10-11T18:21:33.598Z,101179.81
2022-10-11T18:24:02.950Z,101178.44
2022-10-11T18:26:30.607Z,101179.88
2022-10-11T18:28:58.076Z,101183.47
2022-10-11T18:31:28.808Z,101181.97
2022-10-11T18:33:55.534Z,101185.06
2022-10-11T18:36:25.232Z,101175.31
2022-10-11T18:39:02.744Z,101186.00
2022-10-11T18:41:32.205Z,101174.53
2022-10-11T18:44:01.366Z,101181.53
2022-10-11T18:46:28.364Z,101174.13
2022-10-11T18:48:56.217Z,101189.38
2022-10-11T18:51:27.963Z,101185.84
2022-10-11T18:53:55.460Z,101186.91
2022-10-11T18:56:26.710Z,101194.25
2022-10-11T18:58:54.919Z,101190.44
2022-10-11T19:01:28.077Z,101190.28
2022-10-11T19:03:56.775Z,101188.28
2022-10-11T19:06:38.696Z,101191.03
2022-10-11T19:09:17.731Z,101191.09
2022-10-11T19:11:45.185Z,101196.69
2022-10-11T19:14:14.661Z,101184.84
2022-10-11T19:16:45.510Z,101184.28
2022-10-11T19:19:12.578Z,101187.63
2022-10-11T19:21:40.175Z,101185.88
2022-10-11T19:24:06.976Z,101185.53
2022-10-11T19:26:39.506Z,101186.25
2022-10-11T19:29:08.960Z,101174.69
2022-10-11T19:31:40.688Z,101180.75
2022-10-11T19:34:07.145Z,101185.56
2022-10-11T19:36:36.615Z,101173.41
2022-10-11T19:39:04.686Z,101172.69
2022-10-11T19:41:31.866Z,101179.34
2022-10-11T19:43:58.506Z,101176.63
2022-10-11T19:49:15.697Z,101180.53
2022-10-11T19:51:42.179Z,101176.00
2022-10-11T19:54:11.888Z,101178.75
2022-10-11T19:56:38.678Z,101172.53
2022-10-11T19:59:08.724Z,101176.88
2022-10-11T20:01:36.488Z,101177.06
2022-10-11T20:04:08.295Z,101175.03
2022-10-11T20:06:38.649Z,101178.16
2022-10-11T20:09:28.000Z,101180.47
2022-10-11T20:11:52.578Z,101180.31
2022-10-11T20:14:18.986Z,101177.63
2022-10-11T20:16:45.389Z,101179.88
2022-10-11T20:19:11.994Z,101179.59
2022-10-11T20:21:38.752Z,101188.13
2022-10-11T20:24:08.291Z,101189.44
2022-10-11T20:26:35.566Z,101191.22
2022-10-11T20:29:02.224Z,101188.84
2022-10-11T20:31:32.768Z,101194.00
2022-10-11T20:34:01.757Z,101192.22
2022-10-11T20:36:30.032Z,101194.44
2022-10-11T20:38:58.138Z,101181.53
2022-10-11T20:41:27.782Z,101181.72
2022-10-11T20:43:56.192Z,101181.69
2022-10-11T20:46:25.404Z,101181.94
2022-10-11T20:49:01.635Z,101187.38
2022-10-11T20:51:31.403Z,101187.69
2022-10-11T20:53:59.334Z,101192.41
2022-10-11T20:56:26.606Z,101198.13
2022-10-11T20:58:55.477Z,101193.59
2022-10-11T21:01:31.539Z,101199.16
2022-10-11T21:03:59.505Z,101202.50
2022-10-11T21:06:26.614Z,101197.38
2022-10-11T21:08:55.736Z,101203.59
2022-10-11T21:11:25.838Z,101190.75
2022-10-11T21:13:56.312Z,101201.16
2022-10-11T21:16:22.915Z,101189.56
2022-10-11T21:18:54.117Z,101200.16
2022-10-11T21:21:21.162Z,101193.56
2022-10-11T21:23:47.815Z,101191.88
2022-10-11T21:26:17.797Z,101192.94
2022-10-11T21:28:45.359Z,101189.28
2022-10-11T21:31:14.715Z,101190.88
2022-10-11T21:33:43.110Z,101179.53
2022-10-11T21:36:12.536Z,101184.72
2022-10-11T21:38:39.341Z,101178.75
2022-10-11T21:41:08.655Z,101184.91
2022-10-11T21:43:38.059Z,101186.53
2022-10-11T21:46:14.165Z,101178.75
2022-10-11T21:48:40.795Z,101192.81
2022-10-11T21:51:12.095Z,101178.09
2022-10-11T21:53:38.461Z,101187.72
2022-10-11T21:56:05.165Z,101175.41
2022-10-11T21:58:31.535Z,101169.25
2022-10-11T22:00:58.442Z,101177.31
2022-10-11T22:03:26.159Z,101178.06
2022-10-11T22:05:52.863Z,101172.19
2022-10-11T22:08:20.066Z,101166.66
2022-10-11T22:10:54.126Z,101165.97
2022-10-11T22:13:20.808Z,101160.97
2022-10-11T22:15:47.476Z,101164.59
2022-10-11T22:18:13.976Z,101160.94
2022-10-11T22:20:40.506Z,101155.16
2022-10-11T22:23:06.883Z,101163.28
2022-10-11T22:25:38.192Z,101157.19
2022-10-11T22:28:05.624Z,101154.47
2022-10-11T22:30:32.788Z,101159.69
2022-10-11T22:32:59.236Z,101151.94
2022-10-11T22:35:25.994Z,101156.31
2022-10-11T22:37:52.690Z,101159.06
2022-10-11T22:40:19.987Z,101156.50
2022-10-11T22:42:46.644Z,101155.03
2022-10-11T22:45:13.362Z,101157.50
2022-10-11T22:47:39.732Z,101165.50
2022-10-11T22:50:06.574Z,101158.97
2022-10-11T22:52:33.226Z,101158.84
2022-10-11T22:54:59.700Z,101154.75
2022-10-11T22:57:26.139Z,101150.53
2022-10-11T22:59:52.956Z,101152.06
2022-10-11T23:02:19.323Z,101140.00
2022-10-11T23:04:46.034Z,101146.31
2022-10-11T23:07:12.639Z,101146.38
2022-10-11T23:09:39.522Z,101148.72
2022-10-11T23:12:06.290Z,101142.53
2022-10-11T23:14:33.683Z,101138.94
2022-10-11T23:17:00.395Z,101140.81
2022-10-11T23:19:27.202Z,101133.78
2022-10-11T23:21:53.864Z,101135.69
2022-10-11T23:24:20.270Z,101135.56
2022-10-11T23:26:47.179Z,101130.53
2022-10-11T23:29:13.624Z,101134.75
2022-10-11T23:31:40.384Z,101135.72
2022-10-11T23:34:06.893Z,101133.78
2022-10-11T23:36:33.492Z,101131.72
2022-10-11T23:39:00.400Z,101128.09
2022-10-11T23:41:29.216Z,101130.88
2022-10-11T23:43:56.261Z,101128.22
2022-10-11T23:46:23.697Z,101128.25
2022-10-11T23:48:50.329Z,101132.63
2022-10-11T23:51:16.979Z,101138.66
2022-10-11T23:53:43.697Z,101134.34
2022-10-11T23:56:11.499Z,101128.44
2022-10-11T23:58:39.056Z,101134.44
